sensor_id;sensor_type;location;lat;lon;timestamp;temperature;humidity
29663;DHT22;16578;53.266;7.920;2023-02-15T00:01:32;5.60;76.20
29663;DHT22;16578;53.266;7.920;2023-02-15T00:03:58;5.60;76.20
29663;DHT22;16578;53.266;7.920;2023-02-15T00:06:23;5.60;76.30
29663;DHT22;16578;53.266;7.920;2023-02-15T00:08:49;5.60;76.30
29663;DHT22;16578;53.266;7.920;2023-02-15T00:11:17;5.60;76.30
29663;DHT22;16578;53.266;7.920;2023-02-15T00:14:04;5.60;76.30
29663;DHT22;16578;53.266;7.920;2023-02-15T00:16:31;5.60;76.20
29663;DHT22;16578;53.266;7.920;2023-02-15T00:18:56;5.50;76.10
29663;DHT22;16578;53.266;7.920;2023-02-15T00:21:22;5.50;76.00
29663;DHT22;16578;53.266;7.920;2023-02-15T00:23:47;5.50;76.00
29663;DHT22;16578;53.266;7.920;2023-02-15T00:26:13;5.50;76.10
29663;DHT22;16578;53.266;7.920;2023-02-15T00:28:38;5.40;76.20
29663;DHT22;16578;53.266;7.920;2023-02-15T00:31:11;5.40;76.20
29663;DHT22;16578;53.266;7.920;2023-02-15T00:33:38;5.40;76.40
29663;DHT22;16578;53.266;7.920;2023-02-15T00:36:05;5.40;76.30
29663;DHT22;16578;53.266;7.920;2023-02-15T00:38:31;5.40;76.20
29663;DHT22;16578;53.266;7.920;2023-02-15T00:41:00;5.40;76.20
29663;DHT22;16578;53.266;7.920;2023-02-15T00:43:27;5.40;76.20
29663;DHT22;16578;53.266;7.920;2023-02-15T00:45:52;5.30;76.20
29663;DHT22;16578;53.266;7.920;2023-02-15T00:48:19;5.30;76.30
29663;DHT22;16578;53.266;7.920;2023-02-15T00:50:46;5.30;76.30
29663;DHT22;16578;53.266;7.920;2023-02-15T00:53:12;5.30;76.50
29663;DHT22;16578;53.266;7.920;2023-02-15T00:55:38;5.30;76.40
29663;DHT22;16578;53.266;7.920;2023-02-15T00:58:05;5.30;76.40
29663;DHT22;16578;53.266;7.920;2023-02-15T01:00:31;5.30;76.40
29663;DHT22;16578;53.266;7.920;2023-02-15T01:02:56;5.30;76.70
29663;DHT22;16578;53.266;7.920;2023-02-15T01:05:22;5.30;76.90
29663;DHT22;16578;53.266;7.920;2023-02-15T01:07:47;5.30;77.10
29663;DHT22;16578;53.266;7.920;2023-02-15T01:10:13;5.30;77.10
29663;DHT22;16578;53.266;7.920;2023-02-15T01:12:38;5.30;77.20
29663;DHT22;16578;53.266;7.920;2023-02-15T01:15:04;5.30;77.30
29663;DHT22;16578;53.266;7.920;2023-02-15T01:17:31;5.30;77.20
29663;DHT22;16578;53.266;7.920;2023-02-15T01:19:56;5.30;77.20
29663;DHT22;16578;53.266;7.920;2023-02-15T01:22:22;5.30;77.30
29663;DHT22;16578;53.266;7.920;2023-02-15T01:24:49;5.30;77.30
29663;DHT22;16578;53.266;7.920;2023-02-15T01:27:15;5.30;77.40
29663;DHT22;16578;53.266;7.920;2023-02-15T01:29:40;5.30;77.30
29663;DHT22;16578;53.266;7.920;2023-02-15T01:32:06;5.30;77.30
29663;DHT22;16578;53.266;7.920;2023-02-15T01:34:32;5.40;77.30
29663;DHT22;16578;53.266;7.920;2023-02-15T01:36:57;5.40;77.30
29663;DHT22;16578;53.266;7.920;2023-02-15T01:39:23;5.40;77.30
29663;DHT22;16578;53.266;7.920;2023-02-15T01:41:48;5.40;77.30
29663;DHT22;16578;53.266;7.920;2023-02-15T01:47:50;5.40;77.40
29663;DHT22;16578;53.266;7.920;2023-02-15T01:50:24;5.40;77.50
29663;DHT22;16578;53.266;7.920;2023-02-15T01:53:17;5.40;77.50
29663;DHT22;16578;53.266;7.920;2023-02-15T01:55:48;5.40;77.60
29663;DHT22;16578;53.266;7.920;2023-02-15T01:58:16;5.40;77.60
29663;DHT22;16578;53.266;7.920;2023-02-15T02:00:42;5.40;77.70
29663;DHT22;16578;53.266;7.920;2023-02-15T02:03:08;5.40;77.70
29663;DHT22;16578;53.266;7.920;2023-02-15T02:05:34;5.40;77.70
29663;DHT22;16578;53.266;7.920;2023-02-15T02:08:01;5.40;77.60
29663;DHT22;16578;53.266;7.920;2023-02-15T02:10:27;5.40;77.70
29663;DHT22;16578;53.266;7.920;2023-02-15T02:12:56;5.40;77.80
29663;DHT22;16578;53.266;7.920;2023-02-15T02:15:32;5.40;77.80
29663;DHT22;16578;53.266;7.920;2023-02-15T02:18:20;5.40;77.80
29663;DHT22;16578;53.266;7.920;2023-02-15T02:24:11;5.30;78.00
29663;DHT22;16578;53.266;7.920;2023-02-15T02:37:42;5.30;78.30
29663;DHT22;16578;53.266;7.920;2023-02-15T02:40:20;5.30;78.40
29663;DHT22;16578;53.266;7.920;2023-02-15T02:42:56;5.30;78.40
29663;DHT22;16578;53.266;7.920;2023-02-15T02:45:39;5.40;78.60
29663;DHT22;16578;53.266;7.920;2023-02-15T02:48:10;5.40;78.60
29663;DHT22;16578;53.266;7.920;2023-02-15T02:50:39;5.40;79.10
29663;DHT22;16578;53.266;7.920;2023-02-15T02:53:06;5.40;78.50
29663;DHT22;16578;53.266;7.920;2023-02-15T02:55:35;5.30;78.40
29663;DHT22;16578;53.266;7.920;2023-02-15T02:58:11;5.40;78.50
29663;DHT22;16578;53.266;7.920;2023-02-15T03:00:56;5.30;78.40
29663;DHT22;16578;53.266;7.920;2023-02-15T03:03:30;5.30;78.50
29663;DHT22;16578;53.266;7.920;2023-02-15T03:06:00;5.30;78.50
29663;DHT22;16578;53.266;7.920;2023-02-15T03:08:34;5.30;78.40
29663;DHT22;16578;53.266;7.920;2023-02-15T03:11:03;5.30;78.20
29663;DHT22;16578;53.266;7.920;2023-02-15T03:13:29;5.30;78.20
29663;DHT22;16578;53.266;7.920;2023-02-15T03:15:56;5.30;78.10
29663;DHT22;16578;53.266;7.920;2023-02-15T03:18:47;5.30;78.20
29663;DHT22;16578;53.266;7.920;2023-02-15T03:21:30;5.20;78.20
29663;DHT22;16578;53.266;7.920;2023-02-15T03:24:04;5.20;78.30
29663;DHT22;16578;53.266;7.920;2023-02-15T03:26:34;5.20;78.40
29663;DHT22;16578;53.266;7.920;2023-02-15T03:29:02;5.20;78.30
29663;DHT22;16578;53.266;7.920;2023-02-15T03:31:32;5.10;78.30
29663;DHT22;16578;53.266;7.920;2023-02-15T03:34:04;5.10;78.20
29663;DHT22;16578;53.266;7.920;2023-02-15T03:39:23;5.10;78.30
29663;DHT22;16578;53.266;7.920;2023-02-15T03:41:56;5.10;78.30
29663;DHT22;16578;53.266;7.920;2023-02-15T03:44:31;5.00;78.10
29663;DHT22;16578;53.266;7.920;2023-02-15T03:47:12;5.00;78.00
29663;DHT22;16578;53.266;7.920;2023-02-15T03:49:53;5.00;78.10
29663;DHT22;16578;53.266;7.920;2023-02-15T03:52:20;5.00;78.20
29663;DHT22;16578;53.266;7.920;2023-02-15T03:54:47;5.00;78.20
29663;DHT22;16578;53.266;7.920;2023-02-15T03:57:20;5.00;78.10
29663;DHT22;16578;53.266;7.920;2023-02-15T04:00:25;4.90;78.00
29663;DHT22;16578;53.266;7.920;2023-02-15T04:05:49;4.90;78.10
29663;DHT22;16578;53.266;7.920;2023-02-15T04:08:15;4.80;78.10
29663;DHT22;16578;53.266;7.920;2023-02-15T04:10:41;4.80;79.00
29663;DHT22;16578;53.266;7.920;2023-02-15T04:13:19;4.80;78.20
29663;DHT22;16578;53.266;7.920;2023-02-15T04:15:45;4.80;78.30
29663;DHT22;16578;53.266;7.920;2023-02-15T04:18:34;4.80;78.40
29663;DHT22;16578;53.266;7.920;2023-02-15T04:21:19;4.70;78.30
29663;DHT22;16578;53.266;7.920;2023-02-15T04:24:04;4.70;78.40
29663;DHT22;16578;53.266;7.920;2023-02-15T04:26:49;4.80;78.60
29663;DHT22;16578;53.266;7.920;2023-02-15T04:29:18;4.70;78.60
29663;DHT22;16578;53.266;7.920;2023-02-15T04:31:44;4.60;78.80
29663;DHT22;16578;53.266;7.920;2023-02-15T04:34:09;4.70;78.70
29663;DHT22;16578;53.266;7.920;2023-02-15T04:36:36;4.70;78.60
29663;DHT22;16578;53.266;7.920;2023-02-15T04:39:02;4.70;78.50
29663;DHT22;16578;53.266;7.920;2023-02-15T04:41:28;4.70;78.40
29663;DHT22;16578;53.266;7.920;2023-02-15T04:43:53;4.70;78.50
29663;DHT22;16578;53.266;7.920;2023-02-15T04:46:19;4.70;78.50
29663;DHT22;16578;53.266;7.920;2023-02-15T04:48:44;4.70;78.70
29663;DHT22;16578;53.266;7.920;2023-02-15T04:51:10;4.70;78.70
29663;DHT22;16578;53.266;7.920;2023-02-15T04:53:36;4.70;78.60
29663;DHT22;16578;53.266;7.920;2023-02-15T04:56:02;4.70;78.60
29663;DHT22;16578;53.266;7.920;2023-02-15T04:58:28;4.70;78.50
29663;DHT22;16578;53.266;7.920;2023-02-15T05:00:56;4.70;78.40
29663;DHT22;16578;53.266;7.920;2023-02-15T05:03:22;4.70;78.30
29663;DHT22;16578;53.266;7.920;2023-02-15T05:05:48;4.70;78.40
29663;DHT22;16578;53.266;7.920;2023-02-15T05:08:14;4.60;78.40
29663;DHT22;16578;53.266;7.920;2023-02-15T05:10:48;4.60;78.40
29663;DHT22;16578;53.266;7.920;2023-02-15T05:13:14;4.60;78.40
29663;DHT22;16578;53.266;7.920;2023-02-15T05:15:40;4.60;78.40
29663;DHT22;16578;53.266;7.920;2023-02-15T05:18:06;4.60;78.40
29663;DHT22;16578;53.266;7.920;2023-02-15T05:20:33;4.60;78.50
29663;DHT22;16578;53.266;7.920;2023-02-15T05:22:59;4.60;78.50
29663;DHT22;16578;53.266;7.920;2023-02-15T05:25:24;4.60;78.50
29663;DHT22;16578;53.266;7.920;2023-02-15T05:28:11;4.60;78.40
29663;DHT22;16578;53.266;7.920;2023-02-15T05:31:07;4.60;78.40
29663;DHT22;16578;53.266;7.920;2023-02-15T05:33:33;4.60;78.40
29663;DHT22;16578;53.266;7.920;2023-02-15T05:35:59;4.60;78.50
29663;DHT22;16578;53.266;7.920;2023-02-15T05:38:25;4.60;78.50
29663;DHT22;16578;53.266;7.920;2023-02-15T05:40:51;4.60;78.60
29663;DHT22;16578;53.266;7.920;2023-02-15T05:43:17;4.50;78.60
29663;DHT22;16578;53.266;7.920;2023-02-15T05:45:51;4.50;78.70
29663;DHT22;16578;53.266;7.920;2023-02-15T05:48:17;4.50;78.70
29663;DHT22;16578;53.266;7.920;2023-02-15T05:50:44;4.50;78.70
29663;DHT22;16578;53.266;7.920;2023-02-15T05:53:10;4.50;78.70
29663;DHT22;16578;53.266;7.920;2023-02-15T05:55:39;4.50;78.70
29663;DHT22;16578;53.266;7.920;2023-02-15T05:58:05;4.50;78.70
29663;DHT22;16578;53.266;7.920;2023-02-15T06:00:31;4.40;78.60
29663;DHT22;16578;53.266;7.920;2023-02-15T06:02:56;4.40;78.70
29663;DHT22;16578;53.266;7.920;2023-02-15T06:05:22;4.40;78.80
29663;DHT22;16578;53.266;7.920;2023-02-15T06:07:48;4.40;78.80
29663;DHT22;16578;53.266;7.920;2023-02-15T06:10:13;4.40;78.80
29663;DHT22;16578;53.266;7.920;2023-02-15T06:12:39;4.40;78.70
29663;DHT22;16578;53.266;7.920;2023-02-15T06:15:05;4.40;78.60
29663;DHT22;16578;53.266;7.920;2023-02-15T06:17:31;4.30;78.50
29663;DHT22;16578;53.266;7.920;2023-02-15T06:19:56;4.30;78.50
29663;DHT22;16578;53.266;7.920;2023-02-15T06:22:22;4.30;78.60
29663;DHT22;16578;53.266;7.920;2023-02-15T06:24:48;4.20;78.50
29663;DHT22;16578;53.266;7.920;2023-02-15T06:27:13;4.20;78.50
29663;DHT22;16578;53.266;7.920;2023-02-15T06:29:39;4.20;78.60
29663;DHT22;16578;53.266;7.920;2023-02-15T06:32:05;4.20;78.60
29663;DHT22;16578;53.266;7.920;2023-02-15T06:34:31;4.20;78.70
29663;DHT22;16578;53.266;7.920;2023-02-15T06:36:57;4.10;78.70
29663;DHT22;16578;53.266;7.920;2023-02-15T06:39:22;4.10;78.80
29663;DHT22;16578;53.266;7.920;2023-02-15T06:41:48;4.10;78.90
29663;DHT22;16578;53.266;7.920;2023-02-15T06:44:13;4.10;78.90
29663;DHT22;16578;53.266;7.920;2023-02-15T06:46:39;4.10;78.90
29663;DHT22;16578;53.266;7.920;2023-02-15T06:49:05;4.10;78.90
29663;DHT22;16578;53.266;7.920;2023-02-15T06:51:30;4.10;78.80
29663;DHT22;16578;53.266;7.920;2023-02-15T06:53:56;4.10;78.80
29663;DHT22;16578;53.266;7.920;2023-02-15T06:56:21;4.10;78.80
29663;DHT22;16578;53.266;7.920;2023-02-15T06:58:47;4.10;78.90
29663;DHT22;16578;53.266;7.920;2023-02-15T07:01:15;4.10;79.00
29663;DHT22;16578;53.266;7.920;2023-02-15T07:03:40;4.10;78.90
29663;DHT22;16578;53.266;7.920;2023-02-15T07:06:06;4.10;79.00
29663;DHT22;16578;53.266;7.920;2023-02-15T07:08:34;4.10;78.90
29663;DHT22;16578;53.266;7.920;2023-02-15T07:11:00;4.20;78.90
29663;DHT22;16578;53.266;7.920;2023-02-15T07:13:45;4.10;78.90
29663;DHT22;16578;53.266;7.920;2023-02-15T07:16:11;4.20;79.00
29663;DHT22;16578;53.266;7.920;2023-02-15T07:18:37;4.20;79.00
29663;DHT22;16578;53.266;7.920;2023-02-15T07:21:03;4.20;79.10
29663;DHT22;16578;53.266;7.920;2023-02-15T07:23:29;4.20;79.10
29663;DHT22;16578;53.266;7.920;2023-02-15T07:25:58;4.20;80.00
29663;DHT22;16578;53.266;7.920;2023-02-15T07:28:24;4.20;79.10
29663;DHT22;16578;53.266;7.920;2023-02-15T07:30:49;4.30;79.20
29663;DHT22;16578;53.266;7.920;2023-02-15T07:33:15;4.30;79.20
29663;DHT22;16578;53.266;7.920;2023-02-15T07:35:54;4.30;79.20
29663;DHT22;16578;53.266;7.920;2023-02-15T07:38:22;4.30;79.30
29663;DHT22;16578;53.266;7.920;2023-02-15T07:40:48;4.40;79.40
29663;DHT22;16578;53.266;7.920;2023-02-15T07:43:13;4.40;79.40
29663;DHT22;16578;53.266;7.920;2023-02-15T07:45:39;4.40;79.40
29663;DHT22;16578;53.266;7.920;2023-02-15T07:48:05;4.50;79.40
29663;DHT22;16578;53.266;7.920;2023-02-15T07:50:32;4.50;79.40
29663;DHT22;16578;53.266;7.920;2023-02-15T07:52:57;4.50;79.50
29663;DHT22;16578;53.266;7.920;2023-02-15T07:55:23;4.60;79.60
29663;DHT22;16578;53.266;7.920;2023-02-15T07:57:50;4.60;79.60
29663;DHT22;16578;53.266;7.920;2023-02-15T08:00:18;4.60;79.70
29663;DHT22;16578;53.266;7.920;2023-02-15T08:02:48;4.70;79.90
29663;DHT22;16578;53.266;7.920;2023-02-15T08:05:34;4.70;80.80
29663;DHT22;16578;53.266;7.920;2023-02-15T08:07:59;4.80;80.20
29663;DHT22;16578;53.266;7.920;2023-02-15T08:10:25;4.80;80.30
29663;DHT22;16578;53.266;7.920;2023-02-15T08:13:10;4.90;80.50
29663;DHT22;16578;53.266;7.920;2023-02-15T08:15:36;5.00;80.50
29663;DHT22;16578;53.266;7.920;2023-02-15T08:18:01;5.00;80.50
29663;DHT22;16578;53.266;7.920;2023-02-15T08:20:27;5.10;80.60
29663;DHT22;16578;53.266;7.920;2023-02-15T08:22:52;5.10;80.60
29663;DHT22;16578;53.266;7.920;2023-02-15T08:25:18;5.20;80.70
29663;DHT22;16578;53.266;7.920;2023-02-15T08:27:44;5.20;80.70
29663;DHT22;16578;53.266;7.920;2023-02-15T08:30:09;5.30;80.70
29663;DHT22;16578;53.266;7.920;2023-02-15T08:32:35;5.40;80.80
29663;DHT22;16578;53.266;7.920;2023-02-15T08:35:02;5.50;80.90
29663;DHT22;16578;53.266;7.920;2023-02-15T08:37:27;5.50;80.90
29663;DHT22;16578;53.266;7.920;2023-02-15T08:39:53;5.60;81.00
29663;DHT22;16578;53.266;7.920;2023-02-15T08:42:18;5.70;81.20
29663;DHT22;16578;53.266;7.920;2023-02-15T08:44:46;5.70;81.20
29663;DHT22;16578;53.266;7.920;2023-02-15T08:47:11;5.80;81.20
29663;DHT22;16578;53.266;7.920;2023-02-15T08:49:37;5.90;81.20
29663;DHT22;16578;53.266;7.920;2023-02-15T08:52:02;5.90;81.30
29663;DHT22;16578;53.266;7.920;2023-02-15T08:54:28;6.00;81.30
29663;DHT22;16578;53.266;7.920;2023-02-15T08:56:54;6.10;81.30
29663;DHT22;16578;53.266;7.920;2023-02-15T08:59:21;6.20;81.30
29663;DHT22;16578;53.266;7.920;2023-02-15T09:01:48;6.20;81.50
29663;DHT22;16578;53.266;7.920;2023-02-15T09:04:14;6.30;81.60
29663;DHT22;16578;53.266;7.920;2023-02-15T09:06:41;6.40;82.60
29663;DHT22;16578;53.266;7.920;2023-02-15T09:09:08;6.50;81.80
29663;DHT22;16578;53.266;7.920;2023-02-15T09:11:36;6.60;81.90
29663;DHT22;16578;53.266;7.920;2023-02-15T09:14:06;6.70;82.00
29663;DHT22;16578;53.266;7.920;2023-02-15T09:16:35;6.80;82.00
29663;DHT22;16578;53.266;7.920;2023-02-15T09:19:02;6.90;81.90
29663;DHT22;16578;53.266;7.920;2023-02-15T09:21:30;7.00;82.00
29663;DHT22;16578;53.266;7.920;2023-02-15T09:23:58;7.10;82.00
29663;DHT22;16578;53.266;7.920;2023-02-15T09:26:25;7.10;81.90
29663;DHT22;16578;53.266;7.920;2023-02-15T09:28:53;7.20;82.00
29663;DHT22;16578;53.266;7.920;2023-02-15T09:31:22;7.30;82.10
29663;DHT22;16578;53.266;7.920;2023-02-15T09:33:48;7.40;82.00
29663;DHT22;16578;53.266;7.920;2023-02-15T09:36:18;7.50;81.80
29663;DHT22;16578;53.266;7.920;2023-02-15T09:38:45;7.60;81.60
29663;DHT22;16578;53.266;7.920;2023-02-15T09:47:42;7.80;81.40
29663;DHT22;16578;53.266;7.920;2023-02-15T09:50:08;7.90;81.30
29663;DHT22;16578;53.266;7.920;2023-02-15T10:15:13;8.50;80.80
29663;DHT22;16578;53.266;7.920;2023-02-15T10:21:11;8.70;80.80
29663;DHT22;16578;53.266;7.920;2023-02-15T10:23:58;8.70;80.80
29663;DHT22;16578;53.266;7.920;2023-02-15T10:26:36;8.80;80.80
29663;DHT22;16578;53.266;7.920;2023-02-15T10:29:37;8.90;80.80
29663;DHT22;16578;53.266;7.920;2023-02-15T10:32:24;9.00;80.70
29663;DHT22;16578;53.266;7.920;2023-02-15T10:40:58;9.20;80.60
29663;DHT22;16578;53.266;7.920;2023-02-15T10:43:47;9.30;80.60
29663;DHT22;16578;53.266;7.920;2023-02-15T10:54:32;9.60;80.20
29663;DHT22;16578;53.266;7.920;2023-02-15T11:00:23;9.70;80.10
29663;DHT22;16578;53.266;7.920;2023-02-15T11:08:23;9.90;79.90
29663;DHT22;16578;53.266;7.920;2023-02-15T11:10:59;10.00;79.90
29663;DHT22;16578;53.266;7.920;2023-02-15T11:13:31;10.00;79.60
29663;DHT22;16578;53.266;7.920;2023-02-15T11:16:06;10.10;79.60
29663;DHT22;16578;53.266;7.920;2023-02-15T11:18:37;10.20;79.40
29663;DHT22;16578;53.266;7.920;2023-02-15T11:21:10;10.20;79.40
29663;DHT22;16578;53.266;7.920;2023-02-15T11:23:41;10.30;79.30
29663;DHT22;16578;53.266;7.920;2023-02-15T11:26:30;10.30;79.20
29663;DHT22;16578;53.266;7.920;2023-02-15T11:29:13;10.40;79.20
29663;DHT22;16578;53.266;7.920;2023-02-15T11:31:46;10.40;79.00
29663;DHT22;16578;53.266;7.920;2023-02-15T11:34:21;10.50;79.00
29663;DHT22;16578;53.266;7.920;2023-02-15T11:36:52;10.50;78.70
29663;DHT22;16578;53.266;7.920;2023-02-15T11:39:20;10.60;78.70
29663;DHT22;16578;53.266;7.920;2023-02-15T11:41:49;10.70;78.60
29663;DHT22;16578;53.266;7.920;2023-02-15T11:44:31;10.70;78.50
29663;DHT22;16578;53.266;7.920;2023-02-15T11:46:58;10.80;78.30
29663;DHT22;16578;53.266;7.920;2023-02-15T11:49:36;10.80;78.20
29663;DHT22;16578;53.266;7.920;2023-02-15T11:52:05;10.90;77.80
29663;DHT22;16578;53.266;7.920;2023-02-15T11:54:33;10.80;77.90
29663;DHT22;16578;53.266;7.920;2023-02-15T11:57:18;11.00;78.20
29663;DHT22;16578;53.266;7.920;2023-02-15T12:00:02;11.10;77.80
29663;DHT22;16578;53.266;7.920;2023-02-15T12:02:31;11.10;77.60
29663;DHT22;16578;53.266;7.920;2023-02-15T12:04:59;11.20;77.80
29663;DHT22;16578;53.266;7.920;2023-02-15T12:07:36;11.10;77.70
29663;DHT22;16578;53.266;7.920;2023-02-15T12:10:23;11.30;77.80
29663;DHT22;16578;53.266;7.920;2023-02-15T12:13:12;11.30;77.30
29663;DHT22;16578;53.266;7.920;2023-02-15T12:15:47;11.40;77.20
29663;DHT22;16578;53.266;7.920;2023-02-15T12:21:03;11.40;77.00
29663;DHT22;16578;53.266;7.920;2023-02-15T12:23:32;11.50;77.00
29663;DHT22;16578;53.266;7.920;2023-02-15T12:25:58;11.50;76.90
29663;DHT22;16578;53.266;7.920;2023-02-15T12:28:33;11.50;76.80
29663;DHT22;16578;53.266;7.920;2023-02-15T12:31:02;11.60;76.80
29663;DHT22;16578;53.266;7.920;2023-02-15T12:33:38;11.60;76.80
29663;DHT22;16578;53.266;7.920;2023-02-15T12:36:23;11.70;76.70
29663;DHT22;16578;53.266;7.920;2023-02-15T12:42:14;11.80;76.30
29663;DHT22;16578;53.266;7.920;2023-02-15T12:44:32;11.80;76.50
29663;DHT22;16578;53.266;7.920;2023-02-15T12:47:19;11.90;76.50
29663;DHT22;16578;53.266;7.920;2023-02-15T12:50:03;12.00;75.80
29663;DHT22;16578;53.266;7.920;2023-02-15T12:52:30;12.00;76.10
29663;DHT22;16578;53.266;7.920;2023-02-15T12:55:11;12.10;75.90
29663;DHT22;16578;53.266;7.920;2023-02-15T12:57:36;12.10;75.30
29663;DHT22;16578;53.266;7.920;2023-02-15T13:00:26;12.10;75.30
29663;DHT22;16578;53.266;7.920;2023-02-15T13:02:55;12.20;75.40
29663;DHT22;16578;53.266;7.920;2023-02-15T13:10:40;12.30;74.80
29663;DHT22;16578;53.266;7.920;2023-02-15T13:13:10;12.30;75.10
29663;DHT22;16578;53.266;7.920;2023-02-15T13:15:41;12.40;74.80
29663;DHT22;16578;53.266;7.920;2023-02-15T13:18:15;12.40;74.70
29663;DHT22;16578;53.266;7.920;2023-02-15T13:20:42;12.50;74.60
29663;DHT22;16578;53.266;7.920;2023-02-15T13:23:24;12.50;74.50
29663;DHT22;16578;53.266;7.920;2023-02-15T13:25:54;12.60;74.20
29663;DHT22;16578;53.266;7.920;2023-02-15T13:28:24;12.60;74.20
29663;DHT22;16578;53.266;7.920;2023-02-15T13:30:51;12.70;74.10
29663;DHT22;16578;53.266;7.920;2023-02-15T13:33:31;12.70;74.00
29663;DHT22;16578;53.266;7.920;2023-02-15T13:38:57;12.80;73.40
29663;DHT22;16578;53.266;7.920;2023-02-15T13:41:30;12.80;73.40
29663;DHT22;16578;53.266;7.920;2023-02-15T13:44:19;12.80;73.60
29663;DHT22;16578;53.266;7.920;2023-02-15T13:52:22;12.90;72.80
29663;DHT22;16578;53.266;7.920;2023-02-15T13:57:41;13.00;73.10
29663;DHT22;16578;53.266;7.920;2023-02-15T14:13:52;13.10;72.50
29663;DHT22;16578;53.266;7.920;2023-02-15T14:19:22;13.10;71.90
29663;DHT22;16578;53.266;7.920;2023-02-15T14:22:00;13.10;71.80
29663;DHT22;16578;53.266;7.920;2023-02-15T14:27:40;13.10;71.70
29663;DHT22;16578;53.266;7.920;2023-02-15T14:30:36;13.10;72.00
29663;DHT22;16578;53.266;7.920;2023-02-15T14:33:08;13.10;71.60
29663;DHT22;16578;53.266;7.920;2023-02-15T14:35:34;13.10;71.80
29663;DHT22;16578;53.266;7.920;2023-02-15T14:46:02;13.20;71.60
29663;DHT22;16578;53.266;7.920;2023-02-15T14:48:31;13.10;71.40
29663;DHT22;16578;53.266;7.920;2023-02-15T14:50:59;13.20;71.40
29663;DHT22;16578;53.266;7.920;2023-02-15T14:53:34;13.20;71.40
29663;DHT22;16578;53.266;7.920;2023-02-15T14:58:36;13.20;71.40
29663;DHT22;16578;53.266;7.920;2023-02-15T15:01:07;13.10;71.40
29663;DHT22;16578;53.266;7.920;2023-02-15T15:03:33;13.10;71.50
29663;DHT22;16578;53.266;7.920;2023-02-15T15:06:02;13.20;71.50
29663;DHT22;16578;53.266;7.920;2023-02-15T15:08:38;13.10;71.30
29663;DHT22;16578;53.266;7.920;2023-02-15T15:11:39;13.20;71.20
29663;DHT22;16578;53.266;7.920;2023-02-15T15:14:05;13.10;70.70
29663;DHT22;16578;53.266;7.920;2023-02-15T15:19:04;13.10;71.20
29663;DHT22;16578;53.266;7.920;2023-02-15T15:36:08;13.00;70.70
29663;DHT22;16578;53.266;7.920;2023-02-15T15:41:43;13.00;70.70
29663;DHT22;16578;53.266;7.920;2023-02-15T15:49:46;12.90;71.00
29663;DHT22;16578;53.266;7.920;2023-02-15T15:52:15;12.90;70.90
29663;DHT22;16578;53.266;7.920;2023-02-15T15:54:42;12.90;70.80
29663;DHT22;16578;53.266;7.920;2023-02-15T15:57:18;12.80;70.80
29663;DHT22;16578;53.266;7.920;2023-02-15T15:59:45;12.80;70.70
29663;DHT22;16578;53.266;7.920;2023-02-15T16:02:14;12.80;70.90
29663;DHT22;16578;53.266;7.920;2023-02-15T16:04:41;12.80;70.80
29663;DHT22;16578;53.266;7.920;2023-02-15T16:10:35;12.70;70.60
29663;DHT22;16578;53.266;7.920;2023-02-15T16:12:41;12.70;70.70
29663;DHT22;16578;53.266;7.920;2023-02-15T16:15:25;12.60;70.90
29663;DHT22;16578;53.266;7.920;2023-02-15T16:17:55;12.60;70.60
29663;DHT22;16578;53.266;7.920;2023-02-15T16:20:31;12.50;70.80
29663;DHT22;16578;53.266;7.920;2023-02-15T16:23:26;12.50;70.90
29663;DHT22;16578;53.266;7.920;2023-02-15T16:28:34;12.40;70.90
29663;DHT22;16578;53.266;7.920;2023-02-15T16:31:16;12.40;70.90
29663;DHT22;16578;53.266;7.920;2023-02-15T16:33:43;12.30;70.90
29663;DHT22;16578;53.266;7.920;2023-02-15T16:41:21;12.20;71.10
29663;DHT22;16578;53.266;7.920;2023-02-15T16:43:49;12.10;71.10
29663;DHT22;16578;53.266;7.920;2023-02-15T16:46:36;12.10;71.20
29663;DHT22;16578;53.266;7.920;2023-02-15T16:49:12;12.10;71.10
29663;DHT22;16578;53.266;7.920;2023-02-15T16:51:41;12.00;71.30
29663;DHT22;16578;53.266;7.920;2023-02-15T16:54:18;12.00;71.40
29663;DHT22;16578;53.266;7.920;2023-02-15T16:56:44;12.00;71.30
29663;DHT22;16578;53.266;7.920;2023-02-15T16:59:21;11.90;71.30
29663;DHT22;16578;53.266;7.920;2023-02-15T17:01:51;11.90;71.40
29663;DHT22;16578;53.266;7.920;2023-02-15T17:04:25;11.80;72.40
29663;DHT22;16578;53.266;7.920;2023-02-15T17:07:16;11.80;71.50
29663;DHT22;16578;53.266;7.920;2023-02-15T17:12:54;11.70;71.60
29663;DHT22;16578;53.266;7.920;2023-02-15T17:15:30;11.60;71.70
29663;DHT22;16578;53.266;7.920;2023-02-15T17:17:58;11.60;71.70
29663;DHT22;16578;53.266;7.920;2023-02-15T17:20:25;11.50;71.80
29663;DHT22;16578;53.266;7.920;2023-02-15T17:22:51;11.40;71.80
29663;DHT22;16578;53.266;7.920;2023-02-15T17:25:43;11.40;71.90
29663;DHT22;16578;53.266;7.920;2023-02-15T17:28:17;11.40;71.90
29663;DHT22;16578;53.266;7.920;2023-02-15T17:30:44;11.30;72.10
29663;DHT22;16578;53.266;7.920;2023-02-15T17:33:37;11.30;72.30
29663;DHT22;16578;53.266;7.920;2023-02-15T17:36:13;11.20;72.10
29663;DHT22;16578;53.266;7.920;2023-02-15T17:39:06;11.20;72.30
29663;DHT22;16578;53.266;7.920;2023-02-15T17:41:43;11.20;72.40
29663;DHT22;16578;53.266;7.920;2023-02-15T17:44:09;11.10;72.60
29663;DHT22;16578;53.266;7.920;2023-02-15T17:46:39;11.10;72.60
29663;DHT22;16578;53.266;7.920;2023-02-15T17:49:05;11.00;72.60
29663;DHT22;16578;53.266;7.920;2023-02-15T17:51:32;11.00;72.70
29663;DHT22;16578;53.266;7.920;2023-02-15T17:54:00;11.00;72.80
29663;DHT22;16578;53.266;7.920;2023-02-15T17:56:45;10.80;72.90
29663;DHT22;16578;53.266;7.920;2023-02-15T17:59:10;10.90;73.00
29663;DHT22;16578;53.266;7.920;2023-02-15T18:01:45;10.90;72.90
29663;DHT22;16578;53.266;7.920;2023-02-15T18:04:31;10.90;73.00
29663;DHT22;16578;53.266;7.920;2023-02-15T18:07:17;10.80;73.10
29663;DHT22;16578;53.266;7.920;2023-02-15T18:10:11;10.80;73.20
29663;DHT22;16578;53.266;7.920;2023-02-15T18:12:55;10.80;73.30
29663;DHT22;16578;53.266;7.920;2023-02-15T18:15:21;10.80;73.40
29663;DHT22;16578;53.266;7.920;2023-02-15T18:17:48;10.70;73.30
29663;DHT22;16578;53.266;7.920;2023-02-15T18:20:23;10.70;73.40
29663;DHT22;16578;53.266;7.920;2023-02-15T18:22:50;10.70;73.50
29663;DHT22;16578;53.266;7.920;2023-02-15T18:25:18;10.70;73.50
29663;DHT22;16578;53.266;7.920;2023-02-15T18:27:44;10.70;73.50
29663;DHT22;16578;53.266;7.920;2023-02-15T18:30:15;10.70;73.50
29663;DHT22;16578;53.266;7.920;2023-02-15T18:32:41;10.60;73.50
29663;DHT22;16578;53.266;7.920;2023-02-15T18:35:09;10.60;73.50
29663;DHT22;16578;53.266;7.920;2023-02-15T18:37:38;10.60;73.60
29663;DHT22;16578;53.266;7.920;2023-02-15T18:40:04;10.60;73.60
29663;DHT22;16578;53.266;7.920;2023-02-15T18:42:32;10.60;73.70
29663;DHT22;16578;53.266;7.920;2023-02-15T18:45:12;10.60;73.70
29663;DHT22;16578;53.266;7.920;2023-02-15T18:47:38;10.50;73.60
29663;DHT22;16578;53.266;7.920;2023-02-15T18:50:05;10.50;73.70
29663;DHT22;16578;53.266;7.920;2023-02-15T18:52:33;10.50;73.70
29663;DHT22;16578;53.266;7.920;2023-02-15T18:55:03;10.50;73.70